Terminal Aerodrome Forecast
Issued by NWS

Home | Current Version | Previous Version | Graphics & Text | Print | Product List | Glossary On
Versions: 1 2 3 4 5 6 7 8 9 10 11 12 13 14 15 16 17 18 19 20 21 22 23 24
000
FTUS43 KICT 211724
TAFSLN
TAF
KSLN 211724Z 2118/2218 17010G17KT 5SM BR OVC008
     FM212200 17015G21KT 4SM BR OVC008
     FM220100 22010KT 3SM -DZ BR OVC006
     FM221300 27015KT P6SM SCT015 BKN100
     FM221600 29015KT P6SM SCT100=

USA.gov is the U.S. government's official web portal to all federal, state and local government web resources and services.